Aérodrome :
LOGIN :

S'inscrire | Disclaimer

   EN    FR    IT 

 










Légende :    VFR   VFR Marginal   IFR   IFR Intensif   IFR Très Intensif
Visi : 
Plafond : 
>= 8 km
>= 3000ft
5 à 8 km
1000 à 3000 ft
1500m à 5 km
500 à 1000 ft
800 à 1500m
200 à 500 ft
< 800m
< 200 ft
Symboles :   Orages  Brouillard  Fortes neiges  Fortes précipitations  Vent > 20 kt
SIGMETs :   Divers  Orages  Givrage  Turbulence  Onde Orograph.  Cendres Volcan.







- Altitude de l'aérodrome : 1161 ft
- Code IATA : RJL


LELO - Logroño-Agoncillo

DERNIER METAR :
  • 230530Z 26024KT 9999 -RA FEW016 SCT025 BKN050 06/04 Q1003

METARs EXPIRÉS :
  • 230500Z 27018KT 9999 -RA FEW016 SCT025 BKN050 06/04 Q1003
  • 230430Z AUTO 27014KT 9999 -RA FEW045 BKN056 06/04 Q1004
  • 230400Z AUTO 26009KT 230V290 9999 -RA SCT041/// BKN050/// OVC060/// 05/03 Q1005
  • 230330Z AUTO 26010KT 9999 SCT039/// BKN047/// 05/03 Q1005
  • 230300Z AUTO 26011KT 9999 BKN039/// OVC046/// 05/03 Q1006

TAF TAF LELO
Valide du 23 à 06h jusqu'au 23 à 15h UTC


230500Z 2306/2315 27018KT 9999 SCT030 BKN040
TEMPO 2306/2315 5000 RADZ BKN015
PROB40
TEMPO 2306/2315 28025G43KT
Pas de NOTAMs connus pour ce terrain.
1 SIGMET publié pour la FIR Madrid (LECM) :
 
Onde orographique forte
LECM SIGMET 1 VALID 230200/230600 LEVA
LECM MADRID FIR SEV MTW FCST WI N3645 W00343 - N3710 W00346 - N3724 W00215 - N3656 W00211 - N3645 W00343 FL060/200 STNR NC=



MET'MAP, la Météo Aéronautique d'un coup d'oeil ! - Copyright ORBIFLY Décembre 2007 - Disclaimer

ORBIFLY MET'MAP TEAM :

Programmation & Développement : Alexandra Zaïnal
Conception & Développement : Baudouin d'Aumeries
Co-Programmation & Développement : Marc-Olivier Méhu
Soutien technique & logistique : Manuel Goepfert

Contact : metmap@orbifly.com




SOURCES & CREDITS :

   NOAA